Time;durP1;ratioP1;P1;durP2;ratioP2;P2;SDS_P1;SDS_P2;PMS_P1;PMS_P2;Temp;Humidity;BMP_temperature;BMP_pressure;BME280_temperature;BME280_humidity;BME280_pressure;Samples;Min_cycle;Max_cycle;Signal;HPM_P1;HPM_P2
2023/06/30 00:00:15;;;;;;;10.67;5.43;;;21.70;99.90;;;21.87;68.69;100893.03;4999058;27;98649;-43
2023/06/30 00:02:42;;;;;;;7.30;4.73;;;21.60;99.90;;;21.87;65.22;100892.16;4999164;27;98482;-44
2023/06/30 00:05:09;;;;;;;8.43;4.30;;;21.60;99.90;;;21.83;65.84;100896.03;4997607;27;97101;-44
2023/06/30 00:07:36;;;;;;;7.67;4.57;;;21.50;99.90;;;21.79;61.82;100894.59;5009866;27;99246;-44
2023/06/30 00:10:03;;;;;;;7.23;4.40;;;21.50;99.90;;;21.79;67.65;100892.75;5018343;27;97234;-46
2023/06/30 00:12:29;;;;;;;4.97;3.57;;;21.50;99.90;;;21.77;70.14;100896.53;5008041;27;99514;-45
2023/06/30 00:14:54;;;;;;;6.90;3.50;;;21.50;99.90;;;21.68;65.17;100888.22;5001657;27;97967;-43
2023/06/30 00:17:20;;;;;;;5.37;3.30;;;21.40;99.90;;;21.72;69.61;100904.13;5009358;27;99603;-46
2023/06/30 00:19:46;;;;;;;6.57;4.30;;;21.40;99.90;;;21.75;61.80;100898.50;5011953;27;115324;-45
2023/06/30 00:22:11;;;;;;;10.43;4.07;;;21.50;99.90;;;21.74;64.90;100907.53;5001435;27;104280;-47
2023/06/30 00:24:37;;;;;;;4.20;2.77;;;21.50;99.90;;;21.72;65.73;100901.44;5006530;27;100924;-44
2023/06/30 00:27:03;;;;;;;5.40;3.40;;;21.40;99.90;;;21.75;64.24;100901.19;5016687;27;109091;-44
2023/06/30 00:29:29;;;;;;;5.57;2.97;;;21.50;99.90;;;21.71;70.12;100902.41;5014913;27;98499;-45
2023/06/30 00:31:55;;;;;;;4.43;2.70;;;21.40;99.90;;;21.69;68.96;100902.50;5010880;27;101454;-49
2023/06/30 00:34:21;;;;;;;3.33;2.20;;;21.40;99.90;;;21.62;70.17;100902.13;5020438;27;106873;-46
2023/06/30 00:36:46;;;;;;;4.30;3.07;;;21.30;99.90;;;21.58;69.28;100902.50;4999378;27;97161;-43
2023/06/30 00:39:12;;;;;;;7.33;3.13;;;21.30;99.90;;;21.47;68.57;100905.16;4998802;27;100778;-45
2023/06/30 00:41:38;;;;;;;5.17;3.27;;;21.10;99.90;;;21.47;63.03;100895.28;5008746;27;115791;-42
2023/06/30 00:44:04;;;;;;;5.33;3.43;;;21.10;99.90;;;21.35;68.33;100904.28;5003399;27;96846;-42
2023/06/30 00:46:29;;;;;;;5.97;3.87;;;21.00;99.90;;;21.26;63.47;100902.28;4998796;27;97633;-52
2023/06/30 00:48:56;;;;;;;3.87;3.47;;;20.90;99.90;;;21.23;70.06;100902.50;4996844;27;100305;-43
2023/06/30 00:51:22;;;;;;;7.80;3.90;;;20.80;99.90;;;21.21;67.37;100907.97;5011832;27;111036;-43
2023/06/30 00:53:47;;;;;;;6.13;3.50;;;20.80;99.90;;;21.23;67.25;100908.72;4997997;27;97620;-45
2023/06/30 00:56:13;;;;;;;6.63;3.97;;;20.90;99.90;;;21.27;61.69;100904.88;5017284;27;97249;-46
2023/06/30 00:58:39;;;;;;;4.50;2.80;;;20.90;99.90;;;21.29;62.78;100900.25;5001368;27;97484;-45
2023/06/30 01:01:46;;;;;;;4.80;2.90;;;21.00;99.90;;;21.36;65.83;100904.16;4997388;27;97176;-43
2023/06/30 01:04:35;;;;;;;0.87;0.70;;;21.00;99.90;;;21.27;62.46;100904.03;5000112;27;97206;-43
2023/06/30 01:07:11;;;;;;;1.03;0.93;;;21.00;99.90;;;21.25;63.55;100912.16;5008091;27;97067;-47
2023/06/30 01:09:52;;;;;;;1.93;0.90;;;20.90;99.90;;;21.24;62.09;100914.94;5025031;27;97113;-44
2023/06/30 01:12:19;;;;;;;1.73;1.33;;;20.90;99.90;;;21.25;64.08;100916.66;4997582;27;97429;-43
2023/06/30 01:14:46;;;;;;;2.97;1.73;;;20.90;99.90;;;21.24;61.60;100925.66;5008417;27;97183;-46
2023/06/30 01:17:13;;;;;;;1.70;1.00;;;20.90;99.90;;;21.24;63.17;100920.28;5005035;27;97557;-44
2023/06/30 01:19:44;;;;;;;3.63;1.97;;;20.90;99.90;;;21.24;61.68;100923.81;5012423;27;98084;-43
2023/06/30 01:22:34;;;;;;;0.60;0.50;;;20.90;99.90;;;21.17;63.65;100925.28;4993310;27;97323;-42
2023/06/30 01:25:07;;;;;;;1.77;1.03;;;20.90;99.90;;;21.17;61.53;100930.66;4994443;27;97553;-45
2023/06/30 01:27:36;;;;;;;3.50;2.30;;;20.80;99.90;;;21.25;62.80;100922.03;5002013;27;97152;-43
2023/06/30 01:30:05;;;;;;;3.70;1.97;;;20.90;99.90;;;21.27;61.15;100920.13;5005897;27;97265;-44
2023/06/30 01:32:31;;;;;;;3.80;1.73;;;20.90;99.90;;;21.30;60.74;100920.72;4993976;27;96995;-49
2023/06/30 01:34:57;;;;;;;2.60;1.40;;;21.00;99.90;;;21.28;62.09;100905.72;5009471;27;97433;-44
2023/06/30 01:37:23;;;;;;;0.60;0.57;;;20.90;99.90;;;21.29;63.25;100908.28;5016369;27;97330;-44
2023/06/30 01:39:49;;;;;;;2.43;1.40;;;21.00;99.90;;;21.32;60.89;100909.88;4998553;27;98806;-43
2023/06/30 01:42:15;;;;;;;3.70;2.47;;;21.00;99.90;;;21.32;61.21;100912.56;5010668;27;113345;-45
2023/06/30 01:44:42;;;;;;;4.57;2.17;;;21.00;99.90;;;21.33;60.26;100908.91;5012292;27;97118;-43
2023/06/30 01:47:10;;;;;;;1.37;1.00;;;21.00;99.90;;;21.28;63.52;100916.47;5008067;27;97071;-45
2023/06/30 01:49:36;;;;;;;3.03;0.80;;;21.00;99.90;;;21.33;61.45;100914.28;5025450;27;103506;-43
2023/06/30 01:52:02;;;;;;;2.30;1.07;;;20.90;99.90;;;21.32;62.45;100917.94;5002150;27;98016;-43
2023/06/30 01:54:28;;;;;;;3.20;1.93;;;21.00;99.90;;;21.30;60.95;100915.38;5019137;27;96969;-46
2023/06/30 01:56:54;;;;;;;1.87;1.20;;;20.90;99.90;;;21.27;61.55;100920.13;4994986;27;97601;-44
2023/06/30 01:59:20;;;;;;;3.10;0.90;;;20.90;99.90;;;21.28;62.62;100916.47;4999350;27;103929;-45
2023/06/30 02:01:47;;;;;;;1.33;1.07;;;20.90;99.90;;;21.33;61.05;100917.81;5007383;27;100512;-44
2023/06/30 02:04:13;;;;;;;1.83;0.77;;;20.90;99.90;;;21.30;63.25;100919.88;5000115;27;97090;-42
2023/06/30 02:06:38;;;;;;;1.87;1.27;;;20.90;99.90;;;21.32;62.35;100925.97;5015703;27;97261;-46
2023/06/30 02:09:04;;;;;;;1.73;1.20;;;20.90;99.90;;;21.30;61.41;100931.47;4996302;27;117305;-45
2023/06/30 02:11:30;;;;;;;4.10;2.17;;;20.90;99.90;;;21.33;61.79;100933.91;5003979;27;110866;-46
2023/06/30 02:13:56;;;;;;;2.47;1.30;;;21.00;99.90;;;21.20;61.50;100934.91;5017298;27;103691;-45
2023/06/30 02:16:22;;;;;;;1.90;1.07;;;20.80;99.90;;;21.21;62.55;100934.78;5016685;27;97355;-44
2023/06/30 02:18:51;;;;;;;2.60;0.70;;;20.80;99.90;;;21.21;63.21;100931.25;5010644;27;97656;-44
2023/06/30 02:21:17;;;;;;;2.17;0.70;;;20.80;99.90;;;21.20;62.09;100938.47;5018903;27;98756;-43
2023/06/30 02:23:43;;;;;;;4.00;1.00;;;20.70;99.90;;;21.18;64.33;100942.22;5024321;27;96707;-45
2023/06/30 02:26:09;;;;;;;3.00;1.00;;;20.70;99.90;;;21.16;64.22;100944.19;5026314;27;97323;-42
2023/06/30 02:28:34;;;;;;;2.97;1.67;;;20.70;99.90;;;21.19;60.84;100941.25;5011798;27;97221;-42
2023/06/30 02:31:00;;;;;;;1.97;1.20;;;20.70;99.90;;;21.09;65.56;100955.34;5026702;27;97589;-48
2023/06/30 02:33:26;;;;;;;3.53;1.07;;;20.70;99.90;;;21.14;62.47;100946.13;5023958;27;96918;-46
2023/06/30 02:35:52;;;;;;;1.37;0.97;;;20.70;99.90;;;21.12;63.75;100948.03;5022841;27;97089;-42
2023/06/30 02:38:17;;;;;;;1.53;1.33;;;20.70;99.90;;;21.09;61.65;100954.50;5008375;27;97506;-44
2023/06/30 02:40:44;;;;;;;1.97;1.67;;;20.60;99.90;;;21.10;62.60;100961.56;5018688;27;109638;-42
2023/06/30 02:43:10;;;;;;;3.33;1.10;;;20.60;99.90;;;21.04;61.70;100968.25;5017956;27;96892;-42
2023/06/30 02:45:36;;;;;;;2.23;1.37;;;20.50;99.90;;;21.05;61.91;100969.09;5002792;27;97473;-42
2023/06/30 02:48:02;;;;;;;1.20;1.10;;;20.50;99.90;;;21.01;64.01;100973.00;5000447;27;97212;-43
2023/06/30 02:50:30;;;;;;;2.50;1.40;;;20.50;99.90;;;21.05;64.25;100963.75;5013402;27;97651;-42
2023/06/30 02:52:58;;;;;;;2.30;1.50;;;20.60;99.90;;;21.04;62.23;100960.22;4999607;27;97576;-43
2023/06/30 02:55:24;;;;;;;3.53;2.00;;;20.50;99.90;;;21.04;63.45;100962.91;5002718;27;97389;-43
2023/06/30 02:57:50;;;;;;;2.03;1.60;;;20.60;99.90;;;21.02;62.38;100956.78;5003003;27;104118;-45
2023/06/30 03:00:16;;;;;;;2.47;1.63;;;20.50;99.90;;;21.04;62.28;100968.25;5019061;27;104330;-44
2023/06/30 03:02:42;;;;;;;6.87;2.60;;;20.50;99.90;;;21.01;65.51;100964.94;5020888;27;97069;-43
2023/06/30 03:05:09;;;;;;;4.40;2.30;;;20.60;99.90;;;20.97;65.72;100956.25;4999537;27;98088;-45
2023/06/30 03:07:35;;;;;;;2.67;1.93;;;20.50;99.90;;;21.02;63.34;100958.63;5016244;27;99146;-43
2023/06/30 03:10:02;;;;;;;1.90;1.57;;;20.50;99.90;;;21.05;61.22;100948.50;5017082;27;97339;-49
2023/06/30 03:12:28;;;;;;;5.57;3.17;;;20.60;99.90;;;21.09;64.72;100955.34;5005906;27;97488;-44
2023/06/30 03:14:53;;;;;;;3.87;2.90;;;20.70;99.90;;;21.08;62.99;100953.63;5016550;27;97342;-43
2023/06/30 03:17:19;;;;;;;7.20;4.10;;;20.60;99.90;;;21.09;61.82;100955.34;4979561;27;100461;-45
2023/06/30 03:19:45;;;;;;;6.87;3.90;;;20.60;99.90;;;21.08;61.52;100948.28;5013209;27;96925;-43
2023/06/30 03:22:11;;;;;;;4.83;3.13;;;20.60;99.90;;;21.07;62.88;100957.28;5001438;27;98734;-43
2023/06/30 03:24:36;;;;;;;4.33;3.47;;;20.60;99.90;;;21.06;63.71;100952.91;5000079;27;101351;-42
2023/06/30 03:27:03;;;;;;;6.03;3.03;;;20.60;99.90;;;21.06;63.53;100949.38;4998284;27;97916;-43
2023/06/30 03:29:29;;;;;;;3.37;2.70;;;20.60;99.90;;;21.05;63.79;100959.25;5004189;27;97243;-43
2023/06/30 03:31:54;;;;;;;2.63;2.27;;;20.60;99.90;;;21.03;62.63;100958.50;4999734;27;104989;-43
2023/06/30 03:34:20;;;;;;;5.37;2.67;;;20.60;99.90;;;21.01;62.56;100957.75;4999367;27;97357;-47
2023/06/30 03:36:46;;;;;;;6.40;3.27;;;20.50;99.90;;;20.99;61.58;100965.06;4994434;27;105106;-42
2023/06/30 03:39:12;;;;;;;7.10;3.40;;;20.50;99.90;;;20.91;63.02;100962.09;5000876;27;99866;-48
2023/06/30 03:41:38;;;;;;;2.17;1.77;;;20.50;99.90;;;20.96;62.03;100959.06;5013159;27;97661;-44
2023/06/30 03:44:04;;;;;;;8.77;3.10;;;20.50;99.90;;;20.92;62.82;100942.34;5018104;27;97293;-43
2023/06/30 03:46:29;;;;;;;7.00;2.80;;;20.50;99.90;;;20.91;63.07;100951.38;5003657;27;98845;-44
2023/06/30 03:48:55;;;;;;;4.87;2.60;;;20.50;99.90;;;20.90;63.35;100948.81;5002639;27;116021;-44
2023/06/30 03:51:21;;;;;;;4.67;2.37;;;20.40;99.90;;;20.83;63.29;100943.06;4995408;27;104228;-46
2023/06/30 03:53:47;;;;;;;2.93;2.27;;;20.40;99.90;;;20.83;62.40;100943.06;5008281;27;97359;-43
2023/06/30 03:56:12;;;;;;;3.63;2.50;;;20.30;99.90;;;20.88;61.82;100940.03;4998163;27;104984;-46
2023/06/30 03:58:38;;;;;;;4.27;2.43;;;20.40;99.90;;;20.85;63.68;100951.84;4997360;27;96743;-48
2023/06/30 04:01:05;;;;;;;6.60;2.93;;;20.40;99.90;;;20.71;64.54;100950.16;5012834;27;98208;-50
2023/06/30 04:03:31;;;;;;;3.37;2.23;;;20.30;99.90;;;20.77;63.57;100959.56;5000474;27;97060;-47
2023/06/30 04:05:57;;;;;;;4.67;1.73;;;20.30;99.90;;;20.81;62.25;100955.69;5010166;27;113007;-46
2023/06/30 04:08:23;;;;;;;3.57;1.87;;;20.30;99.90;;;20.75;62.60;100957.00;5000457;27;97562;-45
2023/06/30 04:10:48;;;;;;;4.43;2.40;;;20.20;99.90;;;20.72;62.87;100957.25;5006836;27;97568;-45
2023/06/30 04:13:14;;;;;;;5.03;2.20;;;20.30;99.90;;;20.73;63.95;100961.63;5009611;27;103241;-44
2023/06/30 04:15:40;;;;;;;10.47;2.30;;;20.30;99.90;;;20.72;62.88;100967.09;5007932;27;97600;-46
2023/06/30 04:18:06;;;;;;;7.23;1.83;;;20.20;99.90;;;20.72;63.64;100967.97;5002979;27;97672;-45
2023/06/30 04:20:31;;;;;;;4.47;2.03;;;20.20;99.90;;;20.64;63.29;100958.75;4999957;27;107208;-56
2023/06/30 04:22:57;;;;;;;3.97;1.93;;;20.20;99.90;;;20.65;62.99;100955.09;5002303;27;118729;-46
2023/06/30 04:25:23;;;;;;;7.57;1.90;;;20.10;99.90;;;20.64;63.44;100964.09;4993725;27;99462;-42
2023/06/30 04:27:49;;;;;;;5.70;1.93;;;20.10;99.90;;;20.64;63.25;100961.44;4995016;27;97673;-44
2023/06/30 04:30:14;;;;;;;3.10;1.77;;;20.20;99.90;;;20.65;62.99;100957.78;4999522;27;97735;-44
2023/06/30 04:32:40;;;;;;;6.87;1.77;;;20.20;99.90;;;20.72;62.00;100957.25;4996706;27;97115;-42
2023/06/30 04:35:07;;;;;;;4.87;2.00;;;20.20;99.90;;;20.75;62.15;100961.50;5001837;27;97418;-42
2023/06/30 04:37:40;;;;;;;3.37;1.60;;;20.30;99.90;;;20.67;62.12;100963.88;5000695;27;97639;-44
2023/06/30 04:40:10;;;;;;;5.00;2.07;;;20.20;99.90;;;20.66;62.40;100963.03;5010779;27;97063;-45
2023/06/30 04:42:37;;;;;;;7.23;1.73;;;20.20;99.90;;;20.72;62.08;100967.09;5012357;27;97368;-45
2023/06/30 04:45:05;;;;;;;5.63;2.10;;;20.20;99.90;;;20.77;61.88;100962.25;5010345;27;97153;-50
2023/06/30 04:47:30;;;;;;;1.97;1.50;;;20.20;99.90;;;20.76;61.67;100960.53;5013406;27;97095;-50
2023/06/30 04:49:56;;;;;;;2.60;1.93;;;20.20;99.90;;;20.67;63.28;100958.53;5012123;27;97357;-45
2023/06/30 04:52:22;;;;;;;1.80;1.47;;;20.20;99.90;;;20.69;63.13;100959.28;5015816;27;110634;-46
2023/06/30 04:54:48;;;;;;;7.47;1.87;;;20.20;99.90;;;20.70;63.48;100963.69;5015838;27;99820;-45
2023/06/30 04:57:14;;;;;;;4.23;1.70;;;20.20;99.90;;;20.71;64.47;100968.06;4997252;27;98561;-46
2023/06/30 04:59:40;;;;;;;11.97;2.10;;;20.20;99.90;;;20.71;62.19;100968.06;5002505;27;97335;-45
2023/06/30 05:02:06;;;;;;;7.00;1.97;;;20.20;99.90;;;20.74;61.76;100967.84;4999075;27;99285;-45
2023/06/30 05:04:32;;;;;;;2.77;1.43;;;20.20;99.90;;;20.76;61.61;100984.66;4992517;27;97487;-45
2023/06/30 05:06:57;;;;;;;3.03;1.70;;;20.20;99.90;;;20.77;61.59;100979.19;5003950;27;98061;-45
2023/06/30 05:09:23;;;;;;;4.27;2.10;;;20.30;99.90;;;20.75;62.01;100980.28;4999348;27;97563;-44
2023/06/30 05:14:17;;;;;;;6.10;1.87;;;20.30;99.90;;;20.74;63.36;100970.53;4962883;22;99007;-46
2023/06/30 05:16:43;;;;;;;4.83;1.53;;;20.20;99.90;;;20.69;63.61;100973.53;4963965;27;104619;-46
2023/06/30 05:19:08;;;;;;;3.97;1.77;;;20.20;99.90;;;20.66;63.87;100967.53;4968468;28;97639;-46
2023/06/30 05:21:34;;;;;;;4.60;2.03;;;20.20;99.90;;;20.69;62.83;100967.34;4949142;28;106544;-49
2023/06/30 05:24:00;;;;;;;4.03;1.70;;;20.20;99.90;;;20.66;63.13;100967.53;4948277;28;97429;-50
2023/06/30 05:26:26;;;;;;;3.97;1.70;;;20.20;99.90;;;20.61;62.97;100975.06;4943302;28;117394;-48
2023/06/30 05:28:51;;;;;;;4.80;2.10;;;20.10;99.90;;;20.59;62.70;100987.72;4951204;28;97651;-51
2023/06/30 05:31:17;;;;;;;3.90;1.70;;;20.10;99.90;;;20.68;61.50;100976.31;4955263;28;97469;-47
2023/06/30 05:33:43;;;;;;;2.60;1.97;;;20.20;99.90;;;20.68;61.62;100971.81;4959147;28;97191;-45
2023/06/30 05:36:09;;;;;;;4.43;1.93;;;20.20;99.90;;;20.68;62.77;100976.31;4952067;28;100683;-45
2023/06/30 05:38:34;;;;;;;5.00;1.80;;;20.20;99.90;;;20.69;63.10;100976.22;4953090;28;98137;-47
2023/06/30 05:41:00;;;;;;;6.00;2.20;;;20.20;99.90;;;20.67;64.91;100979.97;4959647;28;97591;-45
2023/06/30 05:43:26;;;;;;;4.00;2.40;;;20.20;99.90;;;20.64;62.73;100981.03;4958036;28;100600;-45
2023/06/30 05:45:52;;;;;;;5.20;2.03;;;20.10;99.90;;;20.58;64.44;100976.16;4957429;28;97127;-47
2023/06/30 05:48:19;;;;;;;3.23;2.00;;;20.10;99.90;;;20.57;63.37;100974.44;4948504;28;97478;-46
2023/06/30 05:50:45;;;;;;;2.90;1.80;;;20.10;99.90;;;20.60;62.62;100978.72;4952696;28;96972;-47
2023/06/30 05:53:11;;;;;;;3.67;2.27;;;20.10;99.90;;;20.65;61.75;100968.50;4947704;28;97904;-45
2023/06/30 05:55:37;;;;;;;8.87;2.57;;;20.10;99.90;;;20.62;61.12;100982.97;4954257;28;97446;-45
2023/06/30 05:58:03;;;;;;;4.20;2.27;;;20.10;99.90;;;20.61;61.72;100980.41;4958917;28;97004;-46
2023/06/30 06:00:28;;;;;;;5.17;2.20;;;20.10;99.90;;;20.60;61.62;100978.72;4955551;28;97042;-49
2023/06/30 06:02:54;;;;;;;4.90;2.37;;;20.10;99.90;;;20.63;61.21;100987.38;4946207;28;111809;-45
2023/06/30 06:05:20;;;;;;;5.20;2.23;;;20.20;99.90;;;20.63;61.11;100984.69;4957293;28;97330;-47
2023/06/30 06:07:48;;;;;;;2.27;2.00;;;20.10;99.90;;;20.72;61.25;100983.19;4946735;28;97238;-49
2023/06/30 06:10:13;;;;;;;6.23;2.00;;;20.30;99.90;;;20.75;60.78;100980.28;4951098;28;97077;-45
2023/06/30 06:12:40;;;;;;;4.57;2.00;;;20.30;99.90;;;20.64;60.93;100991.75;4944779;28;121336;-49
2023/06/30 06:15:09;;;;;;;2.60;1.67;;;20.20;99.90;;;20.65;61.22;100992.63;4941577;28;99372;-45
2023/06/30 06:17:35;;;;;;;2.77;2.17;;;20.20;99.90;;;20.73;61.03;101003.66;4950997;28;97344;-45
2023/06/30 06:20:01;;;;;;;5.23;2.50;;;20.20;99.90;;;20.77;60.96;101002.47;4933609;28;99516;-54
2023/06/30 06:22:27;;;;;;;3.40;1.93;;;20.30;99.90;;;20.72;59.45;101004.63;4948487;28;101628;-46
2023/06/30 06:24:52;;;;;;;3.67;1.70;;;20.30;99.90;;;20.74;59.61;101000.00;4953565;28;98130;-47
2023/06/30 06:27:18;;;;;;;6.37;2.27;;;20.30;99.90;;;20.73;59.59;101001.84;4939788;28;97691;-46
2023/06/30 06:29:44;;;;;;;3.57;2.17;;;20.30;99.90;;;20.74;60.25;101003.53;4943098;28;98538;-46
2023/06/30 06:32:10;;;;;;;6.07;1.97;;;20.30;99.90;;;20.71;60.51;100997.56;4949992;28;97565;-46
2023/06/30 06:34:36;;;;;;;3.37;1.57;;;20.20;99.90;;;20.64;60.29;100996.28;4944595;28;101783;-46
2023/06/30 06:37:01;;;;;;;6.47;2.10;;;20.10;99.90;;;20.63;60.49;100994.56;4941044;28;97531;-51
2023/06/30 06:39:27;;;;;;;6.37;2.30;;;20.20;99.90;;;20.62;60.98;100998.22;4955279;28;97397;-47
2023/06/30 06:41:53;;;;;;;3.73;1.47;;;20.10;99.90;;;20.61;61.29;100992.00;4946313;28;106883;-45
2023/06/30 06:44:19;;;;;;;1.70;1.60;;;20.20;99.90;;;20.72;61.17;100991.22;4946485;28;97569;-49
2023/06/30 06:46:44;;;;;;;1.83;1.00;;;20.30;99.90;;;20.81;60.68;100990.53;4945968;28;97256;-45
2023/06/30 06:49:10;;;;;;;4.23;0.90;;;20.40;99.90;;;20.85;60.28;101000.09;4940505;28;97061;-45
2023/06/30 06:51:36;;;;;;;1.00;0.90;;;20.50;99.90;;;20.86;59.86;101007.16;4959752;28;103344;-46
2023/06/30 06:54:02;;;;;;;1.10;0.70;;;20.50;99.90;;;20.88;59.84;101007.91;4939928;28;107534;-47
2023/06/30 06:56:28;;;;;;;1.77;0.80;;;20.50;99.90;;;20.98;59.97;101006.28;4953347;28;96619;-45
2023/06/30 06:58:54;;;;;;;0.87;0.70;;;20.60;99.90;;;21.06;59.72;101009.22;4947340;28;97374;-45
2023/06/30 07:01:20;;;;;;;1.00;0.73;;;20.80;99.90;;;21.16;59.56;101005.88;4947048;28;97463;-47
2023/06/30 07:03:46;;;;;;;1.50;0.90;;;20.90;99.90;;;21.18;56.66;101002.09;4950388;28;97470;-48
2023/06/30 07:06:12;;;;;;;1.90;0.90;;;20.90;99.90;;;21.17;53.85;100999.53;4949057;28;97369;-45
2023/06/30 07:08:39;;;;;;;1.93;0.97;;;20.90;99.90;;;21.19;56.21;101002.94;4949954;28;99439;-46
2023/06/30 07:11:06;;;;;;;2.30;0.80;;;20.90;99.90;;;21.18;58.90;100995.88;4945506;28;97204;-54
2023/06/30 07:13:32;;;;;;;1.53;0.83;;;20.90;99.90;;;21.20;58.82;100994.78;4944649;28;98170;-46
2023/06/30 07:15:58;;;;;;;1.23;1.00;;;20.80;99.90;;;21.24;57.68;101003.44;4946366;28;97022;-45
2023/06/30 07:18:25;;;;;;;3.23;1.03;;;20.90;99.90;;;21.28;55.18;101011.22;4950782;28;96811;-47
2023/06/30 07:20:53;;;;;;;2.13;0.70;;;21.00;99.90;;;21.28;57.64;101013.03;4947290;28;98260;-46
2023/06/30 07:23:19;;;;;;;1.30;0.70;;;21.00;99.90;;;21.26;54.16;101012.28;4949565;28;97614;-47
2023/06/30 07:25:46;;;;;;;2.20;1.20;;;21.00;99.90;;;21.27;58.18;101016.69;4954220;28;97104;-45
2023/06/30 07:28:12;;;;;;;1.00;0.87;;;21.00;99.90;;;21.30;57.21;101024.50;4942812;28;97308;-45
2023/06/30 07:30:40;;;;;;;1.57;0.80;;;21.00;99.90;;;21.33;58.10;101021.59;4935268;28;97152;-51
2023/06/30 07:33:06;;;;;;;1.67;0.73;;;21.00;99.90;;;21.37;57.43;101012.34;4948569;28;97221;-49
2023/06/30 07:35:32;;;;;;;2.73;0.87;;;21.10;99.90;;;21.38;57.15;101014.91;4953227;28;96957;-45
2023/06/30 07:37:58;;;;;;;2.17;1.00;;;21.10;99.90;;;21.39;56.05;101015.75;4950444;28;99403;-47
2023/06/30 07:40:24;;;;;;;5.40;1.40;;;21.10;99.90;;;21.27;53.25;101019.38;4938033;28;97529;-48
2023/06/30 07:42:50;;;;;;;4.83;1.40;;;21.00;99.90;;;21.27;52.61;101027.44;4942740;28;114711;-45
2023/06/30 07:45:17;;;;;;;2.67;1.10;;;21.00;99.90;;;21.27;56.00;101022.06;4942087;28;97249;-47
2023/06/30 07:47:45;;;;;;;2.47;0.90;;;20.90;99.90;;;21.22;50.59;101025.03;4945181;28;97551;-46
2023/06/30 07:50:13;;;;;;;2.63;1.37;;;20.90;99.90;;;21.30;52.03;101032.56;4955574;28;97010;-47
2023/06/30 07:52:45;;;;;;;1.47;0.70;;;21.00;99.90;;;21.28;53.29;101029.13;4948420;28;97788;-45
2023/06/30 07:55:12;;;;;;;1.70;0.83;;;21.00;99.90;;;21.37;58.27;101028.44;4948695;28;96836;-46
2023/06/30 07:57:39;;;;;;;1.17;0.73;;;21.10;99.90;;;21.46;57.48;101027.75;4950192;28;96933;-48
2023/06/30 08:00:06;;;;;;;1.07;0.70;;;21.30;99.90;;;21.55;56.82;101021.66;4941173;28;97926;-47
2023/06/30 08:02:32;;;;;;;1.80;0.87;;;21.40;99.90;;;21.58;53.61;101021.47;4957606;28;101180;-47
2023/06/30 08:04:58;;;;;;;2.10;0.87;;;21.50;99.90;;;21.60;57.35;101019.50;4956768;28;97320;-45
2023/06/30 08:07:24;;;;;;;1.67;0.80;;;21.50;99.90;;;21.62;57.03;101022.94;4953717;28;99490;-47
2023/06/30 08:09:51;;;;;;;1.80;1.27;;;21.50;99.90;;;21.61;55.25;101020.38;4951607;28;97560;-49
2023/06/30 08:12:16;;;;;;;1.00;0.60;;;21.40;99.90;;;21.68;56.62;101027.81;4948924;28;97291;-45
2023/06/30 08:14:42;;;;;;;0.90;0.73;;;21.50;99.90;;;21.64;56.89;101025.50;4951628;28;97247;-47
2023/06/30 08:17:08;;;;;;;3.03;1.10;;;21.40;99.90;;;21.58;50.46;101037.56;4948412;28;97201;-45
2023/06/30 08:19:34;;;;;;;3.57;1.10;;;21.40;99.90;;;21.52;48.29;101038.00;4953025;28;97227;-47
2023/06/30 08:22:01;;;;;;;3.50;1.23;;;21.30;99.90;;;21.49;51.31;101038.25;4954412;28;102904;-46
2023/06/30 08:24:27;;;;;;;2.63;1.30;;;21.20;99.90;;;21.51;49.29;101025.56;4945766;28;96922;-45
2023/06/30 08:26:53;;;;;;;2.07;0.80;;;21.20;99.90;;;21.52;50.61;101026.41;4939733;28;112736;-46
2023/06/30 08:29:18;;;;;;;1.33;0.90;;;21.20;99.90;;;21.46;50.10;101029.56;4949154;28;107800;-45
2023/06/30 08:31:44;;;;;;;3.80;1.00;;;21.20;99.90;;;21.33;50.28;101026.97;4951384;28;98540;-47
2023/06/30 08:34:10;;;;;;;1.07;0.63;;;21.10;99.90;;;21.38;57.27;101027.47;4948438;28;97322;-50
2023/06/30 08:36:36;;;;;;;1.67;0.97;;;21.10;99.90;;;21.46;57.04;101037.63;4946121;28;97273;-47
2023/06/30 08:39:02;;;;;;;1.43;1.00;;;21.20;99.90;;;21.48;56.26;101031.16;4950088;28;105496;-54
2023/06/30 08:41:30;;;;;;;2.17;0.80;;;21.20;99.90;;;21.39;48.16;101027.34;4944046;28;97449;-50
2023/06/30 08:43:57;;;;;;;2.33;1.13;;;21.20;99.90;;;21.35;47.64;101025.88;4926811;28;97329;-47
2023/06/30 08:46:26;;;;;;;1.47;0.90;;;21.20;99.90;;;21.32;48.21;101018.06;4927352;28;97695;-46
2023/06/30 08:48:52;;;;;;;1.87;1.07;;;21.10;99.90;;;21.35;50.67;101014.28;4948963;28;100587;-48
2023/06/30 08:51:19;;;;;;;2.20;1.07;;;21.20;99.90;;;21.41;49.13;101021.00;4953205;28;106402;-47
2023/06/30 08:53:47;;;;;;;3.37;0.90;;;21.20;99.90;;;21.31;48.17;101016.34;4935614;28;97305;-45
2023/06/30 08:56:15;;;;;;;4.23;0.80;;;21.10;99.90;;;21.32;45.98;101018.06;4928073;28;104266;-47
2023/06/30 08:58:41;;;;;;;3.20;1.10;;;21.10;99.90;;;21.35;49.84;101014.28;4952134;28;97011;-45
2023/06/30 09:01:08;;;;;;;1.97;0.80;;;21.10;99.90;;;21.40;48.66;101012.09;4944855;28;105388;-47
2023/06/30 09:03:36;;;;;;;1.03;0.70;;;21.20;99.90;;;21.33;45.53;101006.34;4932945;28;104528;-49
2023/06/30 09:06:02;;;;;;;1.47;0.77;;;21.10;99.90;;;21.43;52.56;101000.28;4950448;28;97540;-46
2023/06/30 09:08:56;;;;;;;3.27;0.60;;;21.20;99.90;;;21.35;45.68;101007.09;4942210;28;120823;-45
2023/06/30 09:11:24;;;;;;;0.43;0.40;;;21.20;99.90;;;21.42;53.72;101009.31;4928341;28;100911;-47
2023/06/30 09:13:53;;;;;;;0.80;0.60;;;21.30;99.90;;;21.36;45.29;100999.88;4954411;28;96817;-47
2023/06/30 09:16:19;;;;;;;1.90;0.80;;;21.20;99.90;;;21.35;50.16;101008.91;4942385;28;96967;-49
2023/06/30 09:18:48;;;;;;;2.40;0.90;;;21.10;99.90;;;21.34;44.12;101008.06;4954094;28;97461;-45
2023/06/30 09:21:14;;;;;;;1.50;0.97;;;21.20;99.90;;;21.39;53.27;101005.00;4939320;28;96915;-48
2023/06/30 09:23:40;;;;;;;1.53;0.87;;;21.20;99.90;;;21.39;45.39;101002.34;4945001;28;97498;-45
2023/06/30 09:26:14;;;;;;;1.30;0.50;;;21.20;99.90;;;21.46;53.32;101000.91;4933114;28;97527;-49
2023/06/30 09:28:43;;;;;;;1.93;0.80;;;21.30;99.90;;;21.45;50.52;100999.19;4947787;28;101625;-46
2023/06/30 09:31:09;;;;;;;1.83;0.73;;;21.20;99.90;;;21.46;43.62;100995.53;4946319;28;97247;-47
2023/06/30 09:33:36;;;;;;;1.67;0.47;;;21.30;99.90;;;21.54;54.18;100979.69;4951913;28;97149;-46
2023/06/30 09:36:03;;;;;;;1.47;0.70;;;21.40;99.90;;;21.43;43.00;100985.06;4957369;28;99130;-48
2023/06/30 09:38:29;;;;;;;0.87;0.50;;;21.30;99.90;;;21.42;43.39;100986.03;4954519;28;101786;-46
2023/06/30 09:40:56;;;;;;;0.83;0.50;;;21.30;99.90;;;21.49;53.53;100994.44;4952123;28;104909;-45
2023/06/30 09:43:26;;;;;;;0.93;0.60;;;21.30;99.90;;;21.52;51.44;100984.34;4941691;28;97362;-47
2023/06/30 09:45:57;;;;;;;2.70;0.87;;;21.40;99.90;;;21.59;49.90;100985.59;4934185;28;102058;-49
2023/06/30 09:48:38;;;;;;;3.00;0.63;;;21.50;99.90;;;21.64;44.12;100987.91;4940578;28;97386;-51
2023/06/30 09:51:06;;;;;;;1.20;0.50;;;21.50;99.90;;;21.63;46.03;100987.06;4950912;28;102412;-45
2023/06/30 09:53:41;;;;;;;2.73;0.47;;;21.50;99.90;;;21.66;45.70;100981.44;4944229;28;97164;-50
2023/06/30 09:56:08;;;;;;;2.27;0.60;;;21.50;99.90;;;21.65;45.14;100985.09;4945165;28;97807;-49
2023/06/30 09:58:35;;;;;;;3.47;0.63;;;21.60;99.90;;;21.63;41.89;100980.84;4943220;28;100704;-46
2023/06/30 10:01:01;;;;;;;2.20;0.50;;;21.60;99.90;;;21.61;45.90;100983.63;4948417;28;101702;-47
2023/06/30 10:03:27;;;;;;;3.03;0.83;;;21.60;99.90;;;21.68;51.34;100984.88;4948600;28;98344;-47
2023/06/30 10:05:53;;;;;;;2.30;0.70;;;21.60;99.90;;;21.73;44.77;100986.38;4953203;28;96877;-46
2023/06/30 10:08:22;;;;;;;1.33;0.50;;;21.70;99.90;;;21.74;44.05;100982.69;4943969;28;97435;-45
2023/06/30 10:10:52;;;;;;;0.60;0.50;;;21.70;99.90;;;21.74;45.56;100993.44;4940765;28;97587;-46